createdAt,value
2022-11-23T00:02:08.147Z,7.86
2022-11-23T00:04:36.729Z,7.86
2022-11-23T00:07:07.000Z,7.86
2022-11-23T00:09:36.646Z,7.83
2022-11-23T00:12:09.212Z,7.84
2022-11-23T00:14:38.834Z,7.81
2022-11-23T00:17:08.497Z,7.85
2022-11-23T00:19:39.809Z,7.85
2022-11-23T00:22:09.920Z,7.86
2022-11-23T00:24:39.919Z,7.83
2022-11-23T00:27:11.542Z,7.85
2022-11-23T00:29:40.906Z,7.86
2022-11-23T00:32:10.993Z,7.85
2022-11-23T00:34:40.549Z,7.87
2022-11-23T00:37:09.351Z,7.89
2022-11-23T00:39:39.510Z,7.88
2022-11-23T00:42:09.457Z,7.88
2022-11-23T00:44:39.346Z,7.85
2022-11-23T00:47:09.485Z,7.86
2022-11-23T00:49:38.537Z,7.87
2022-11-23T00:52:09.360Z,7.86
2022-11-23T00:54:40.468Z,7.86
2022-11-23T00:57:10.941Z,7.83
2022-11-23T00:59:40.559Z,7.84
2022-11-23T01:02:09.752Z,7.85
2022-11-23T01:04:41.667Z,7.86
2022-11-23T01:07:12.741Z,7.84
2022-11-23T01:09:42.915Z,7.85
2022-11-23T01:12:13.942Z,7.87
2022-11-23T01:14:44.287Z,7.88
2022-11-23T01:17:14.807Z,7.84
2022-11-23T01:19:44.089Z,7.83
2022-11-23T01:22:13.920Z,7.81
2022-11-23T01:24:44.676Z,7.86
2022-11-23T01:27:15.109Z,7.86
2022-11-23T01:29:44.790Z,7.85
2022-11-23T01:32:14.442Z,7.87
2022-11-23T01:34:44.501Z,7.87
2022-11-23T01:37:14.759Z,7.88
2022-11-23T01:39:44.019Z,7.87
2022-11-23T01:42:17.986Z,7.87
2022-11-23T01:44:48.276Z,7.87
2022-11-23T01:47:19.050Z,7.88
2022-11-23T01:49:53.549Z,7.86
2022-11-23T01:52:26.835Z,7.84
2022-11-23T01:55:05.314Z,7.87
2022-11-23T01:57:45.493Z,7.86
2022-11-23T02:00:17.399Z,7.87
2022-11-23T02:02:54.891Z,7.84
2022-11-23T02:05:31.952Z,7.85
2022-11-23T02:08:04.381Z,7.84
2022-11-23T02:10:35.063Z,7.81
2022-11-23T02:13:11.811Z,7.83
2022-11-23T02:15:44.150Z,7.83
2022-11-23T02:18:24.215Z,7.79
2022-11-23T02:20:55.224Z,7.81
2022-11-23T02:23:37.400Z,7.84
2022-11-23T02:26:14.737Z,7.84
2022-11-23T02:28:50.936Z,7.86
2022-11-23T02:31:20.549Z,7.87
2022-11-23T02:33:50.046Z,7.89
2022-11-23T02:36:39.126Z,7.86
2022-11-23T02:39:12.808Z,7.85
2022-11-23T02:41:48.157Z,7.83
2022-11-23T02:44:33.050Z,7.84
2022-11-23T02:47:02.764Z,7.84
2022-11-23T02:49:32.484Z,7.87
2022-11-23T02:52:02.237Z,7.88
2022-11-23T02:54:32.647Z,7.88
2022-11-23T02:57:04.900Z,7.87
2022-11-23T02:59:34.680Z,7.84
2022-11-23T03:02:06.510Z,7.84
2022-11-23T03:04:36.159Z,7.85
2022-11-23T03:07:06.190Z,7.85
2022-11-23T03:09:35.733Z,7.85
2022-11-23T03:12:07.737Z,7.86
2022-11-23T03:14:39.837Z,7.85
2022-11-23T03:17:10.496Z,7.84
2022-11-23T03:19:40.676Z,7.86
2022-11-23T03:22:10.738Z,7.85
2022-11-23T03:24:39.910Z,7.87
2022-11-23T03:27:10.213Z,7.88
2022-11-23T03:29:39.208Z,7.85
2022-11-23T03:32:09.173Z,7.87
2022-11-23T03:34:38.856Z,7.86
2022-11-23T03:37:09.029Z,7.88
2022-11-23T03:39:41.717Z,7.87
2022-11-23T03:42:17.256Z,7.86
2022-11-23T03:44:46.343Z,7.85
2022-11-23T03:47:15.330Z,7.83
2022-11-23T03:49:46.547Z,7.84
2022-11-23T03:52:16.351Z,7.84
2022-11-23T03:54:47.138Z,7.83
2022-11-23T03:57:18.525Z,7.83
2022-11-23T03:59:49.209Z,7.83
2022-11-23T04:02:18.455Z,7.82
2022-11-23T04:04:48.734Z,7.82
2022-11-23T04:07:21.783Z,7.79
2022-11-23T04:09:51.981Z,7.80
2022-11-23T04:12:23.306Z,7.83
2022-11-23T04:14:53.498Z,7.82
2022-11-23T04:17:22.813Z,7.80
2022-11-23T04:19:52.415Z,7.83
2022-11-23T04:22:21.494Z,7.82
2022-11-23T04:24:50.409Z,7.80
2022-11-23T04:27:19.521Z,7.81
2022-11-23T04:29:50.725Z,7.78
2022-11-23T04:32:20.474Z,7.78
2022-11-23T04:34:49.038Z,7.78
2022-11-23T04:37:18.054Z,7.73
2022-11-23T04:39:48.446Z,7.73
2022-11-23T04:42:17.747Z,7.75
2022-11-23T04:44:49.557Z,7.77
2022-11-23T04:47:20.204Z,7.76
2022-11-23T04:49:48.740Z,7.76
2022-11-23T04:52:18.504Z,7.79
2022-11-23T04:54:48.072Z,7.79
2022-11-23T04:57:18.276Z,7.79
2022-11-23T04:59:49.967Z,7.82
2022-11-23T05:02:18.554Z,7.83
2022-11-23T05:04:48.702Z,7.81
2022-11-23T05:07:17.374Z,7.80
2022-11-23T05:09:47.172Z,7.80
2022-11-23T05:12:16.594Z,7.79
2022-11-23T05:14:45.488Z,7.80
2022-11-23T05:17:16.881Z,7.79
2022-11-23T05:19:46.032Z,7.79
2022-11-23T05:22:17.419Z,7.81
2022-11-23T05:24:47.561Z,7.80
2022-11-23T05:27:17.559Z,7.77
2022-11-23T05:29:47.288Z,7.79
2022-11-23T05:32:19.010Z,7.80
2022-11-23T05:34:48.575Z,7.80
2022-11-23T05:37:18.133Z,7.81
2022-11-23T05:39:48.248Z,7.77
2022-11-23T05:42:16.762Z,7.78
2022-11-23T05:44:46.192Z,7.78
2022-11-23T05:47:17.685Z,7.80
2022-11-23T05:49:47.158Z,7.79
2022-11-23T05:52:16.277Z,7.79
2022-11-23T05:54:45.318Z,7.78
2022-11-23T05:57:15.938Z,7.79
2022-11-23T05:59:44.414Z,7.80
2022-11-23T06:02:14.758Z,7.75
2022-11-23T06:04:45.201Z,7.73
2022-11-23T06:07:15.200Z,7.74
2022-11-23T06:09:44.302Z,7.75
2022-11-23T06:12:14.355Z,7.76
2022-11-23T06:14:43.997Z,7.77
2022-11-23T06:17:12.505Z,7.76
2022-11-23T06:19:43.534Z,7.77
2022-11-23T06:22:12.949Z,7.75
2022-11-23T06:24:43.223Z,7.78
2022-11-23T06:27:17.826Z,7.77
2022-11-23T06:29:47.182Z,7.76
2022-11-23T06:32:17.757Z,7.77
2022-11-23T06:34:49.167Z,7.77
2022-11-23T06:37:18.974Z,7.79
2022-11-23T06:39:49.496Z,7.76
2022-11-23T06:45:09.923Z,7.76
2022-11-23T06:47:39.592Z,7.75
2022-11-23T06:50:12.516Z,7.74
2022-11-23T06:52:41.706Z,7.72
2022-11-23T06:55:10.903Z,7.71
2022-11-23T06:57:41.251Z,7.70
2022-11-23T07:00:13.883Z,7.65
2022-11-23T07:02:44.063Z,7.66
2022-11-23T07:05:14.505Z,7.65
2022-11-23T07:07:44.081Z,7.63
2022-11-23T07:10:14.938Z,7.65
2022-11-23T07:12:45.169Z,7.64
2022-11-23T07:15:15.066Z,7.62
2022-11-23T07:17:44.908Z,7.64
2022-11-23T07:20:16.672Z,7.57
2022-11-23T07:22:46.881Z,7.56
2022-11-23T07:25:19.452Z,7.56
2022-11-23T07:27:48.462Z,7.55
2022-11-23T07:30:26.514Z,7.56
2022-11-23T07:33:02.740Z,7.57
2022-11-23T07:35:34.006Z,7.55
2022-11-23T07:38:06.523Z,7.54
2022-11-23T07:40:36.336Z,7.56
2022-11-23T07:43:07.840Z,7.59
2022-11-23T07:45:38.645Z,7.60
2022-11-23T07:48:10.823Z,7.59
2022-11-23T07:50:42.325Z,7.57
2022-11-23T07:53:12.832Z,7.55
2022-11-23T07:55:43.189Z,7.57
2022-11-23T07:58:13.274Z,7.59
2022-11-23T08:00:43.098Z,7.59
2022-11-23T08:03:31.333Z,7.54
2022-11-23T08:06:01.897Z,7.57
2022-11-23T08:08:31.127Z,7.56
2022-11-23T08:11:00.754Z,7.55
2022-11-23T08:13:32.003Z,7.58
2022-11-23T08:16:03.281Z,7.57
2022-11-23T08:18:33.355Z,7.58
2022-11-23T08:21:05.381Z,7.60
2022-11-23T08:23:34.403Z,7.58
2022-11-23T08:26:09.100Z,7.64
2022-11-23T08:28:41.623Z,7.64
2022-11-23T08:31:14.698Z,7.62
2022-11-23T08:33:44.711Z,7.65
2022-11-23T08:36:16.263Z,7.63
2022-11-23T08:38:51.437Z,7.60
2022-11-23T08:41:21.208Z,7.60
2022-11-23T08:43:50.603Z,7.57
2022-11-23T08:46:20.971Z,7.59
2022-11-23T08:48:50.949Z,7.56
2022-11-23T08:51:23.012Z,7.58
2022-11-23T08:53:52.702Z,7.56
2022-11-23T08:56:23.675Z,7.57
2022-11-23T08:58:52.790Z,7.51
2022-11-23T09:01:23.268Z,7.52
2022-11-23T09:03:54.655Z,7.56
2022-11-23T09:06:29.286Z,7.57
2022-11-23T09:08:58.329Z,7.54
2022-11-23T09:11:28.045Z,7.59
2022-11-23T09:13:58.693Z,7.56
2022-11-23T09:16:32.403Z,7.54
2022-11-23T09:19:04.045Z,7.55
2022-11-23T09:21:36.327Z,7.57
2022-11-23T09:24:06.401Z,7.53
2022-11-23T09:26:37.652Z,7.54
2022-11-23T09:29:08.103Z,7.53
2022-11-23T09:31:37.999Z,7.56
2022-11-23T09:34:07.844Z,7.55
2022-11-23T09:36:38.713Z,7.62
2022-11-23T09:39:09.684Z,7.65
2022-11-23T09:42:16.647Z,7.67
2022-11-23T09:45:12.864Z,7.68
2022-11-23T09:48:16.512Z,7.68
2022-11-23T09:50:54.102Z,7.72
2022-11-23T09:53:34.195Z,7.73
2022-11-23T09:56:05.442Z,7.79
2022-11-23T09:58:41.589Z,7.79
2022-11-23T10:01:18.100Z,7.80
2022-11-23T10:03:49.333Z,7.82
2022-11-23T10:06:25.736Z,7.76
2022-11-23T10:09:25.780Z,7.77
2022-11-23T10:12:46.255Z,7.75
2022-11-23T10:15:25.524Z,7.77
2022-11-23T10:18:26.489Z,7.76
2022-11-23T10:21:05.408Z,7.78
2022-11-23T10:23:57.546Z,7.79
2022-11-23T10:26:34.923Z,7.82
2022-11-23T10:29:16.979Z,7.82
2022-11-23T10:31:56.662Z,7.83
2022-11-23T10:34:48.371Z,7.84
2022-11-23T10:37:20.160Z,7.91
2022-11-23T10:39:49.781Z,7.95
2022-11-23T10:42:30.150Z,8.01
2022-11-23T10:45:02.189Z,7.99
2022-11-23T10:47:41.818Z,8.02
2022-11-23T10:50:27.807Z,8.08
2022-11-23T10:52:59.572Z,8.10
2022-11-23T10:55:33.024Z,8.13
2022-11-23T10:58:03.833Z,8.14
2022-11-23T11:00:32.921Z,8.18
2022-11-23T11:03:03.431Z,8.20
2022-11-23T11:06:09.481Z,8.24
2022-11-23T11:08:32.285Z,8.22
2022-11-23T11:11:06.050Z,8.30
2022-11-23T11:13:45.708Z,8.31
2022-11-23T11:16:23.606Z,8.33
2022-11-23T11:18:53.714Z,8.35
2022-11-23T11:21:29.940Z,8.41
2022-11-23T11:24:04.782Z,8.41
2022-11-23T11:26:37.729Z,8.39
2022-11-23T11:29:21.420Z,8.40
2022-11-23T11:32:00.624Z,8.46
2022-11-23T11:34:36.768Z,8.48
2022-11-23T11:37:16.453Z,8.51
2022-11-23T11:39:55.224Z,8.54
2022-11-23T11:42:35.891Z,8.56
2022-11-23T11:45:25.648Z,8.62
2022-11-23T11:48:04.199Z,8.65
2022-11-23T11:50:42.650Z,8.67
2022-11-23T11:53:19.162Z,8.71
2022-11-23T11:55:57.405Z,8.74
2022-11-23T11:58:27.946Z,8.74
2022-11-23T12:01:09.953Z,8.77
2022-11-23T12:03:49.969Z,8.79
2022-11-23T12:06:31.365Z,8.83
2022-11-23T12:09:08.210Z,8.86
2022-11-23T12:11:37.709Z,8.87
2022-11-23T12:14:12.346Z,8.89
2022-11-23T12:17:17.015Z,8.93
2022-11-23T12:19:56.838Z,8.95
2022-11-23T12:22:48.299Z,8.94
2022-11-23T12:25:33.451Z,8.99
2022-11-23T12:28:28.091Z,8.99
2022-11-23T12:31:11.568Z,9.01
2022-11-23T12:34:22.403Z,9.03
2022-11-23T12:37:27.141Z,9.08
2022-11-23T12:41:09.283Z,9.12
2022-11-23T12:44:00.863Z,9.17
2022-11-23T12:46:42.098Z,9.17
2022-11-23T12:49:38.810Z,9.18
2022-11-23T12:52:36.304Z,9.18
2022-11-23T12:55:20.498Z,9.21
2022-11-23T12:58:00.481Z,9.23
2022-11-23T13:00:39.207Z,9.22
2022-11-23T13:03:57.536Z,9.22
2022-11-23T13:07:30.267Z,9.20
2022-11-23T13:10:46.259Z,9.21
2022-11-23T13:13:37.927Z,9.25
2022-11-23T13:16:42.377Z,9.22
2022-11-23T13:19:34.489Z,9.22
2022-11-23T13:22:16.044Z,9.22
2022-11-23T13:25:21.069Z,9.22
2022-11-23T13:28:00.125Z,9.20
2022-11-23T13:30:52.325Z,9.20
2022-11-23T13:33:38.098Z,9.22
2022-11-23T13:36:16.869Z,9.21
2022-11-23T13:38:50.101Z,9.20
2022-11-23T13:42:01.436Z,9.21
2022-11-23T13:44:34.099Z,9.19
2022-11-23T13:47:20.230Z,9.19
2022-11-23T13:49:51.674Z,9.15
2022-11-23T13:52:51.433Z,9.16
2022-11-23T13:55:30.689Z,9.14
2022-11-23T13:58:55.024Z,9.16
2022-11-23T14:02:30.096Z,9.16
2022-11-23T14:05:52.965Z,9.12
2022-11-23T14:08:23.503Z,9.12
2022-11-23T14:10:55.526Z,9.15
2022-11-23T14:13:33.914Z,9.12
2022-11-23T14:16:06.893Z,9.08
2022-11-23T14:19:04.886Z,9.07
2022-11-23T14:21:47.616Z,9.10
2022-11-23T14:25:19.711Z,9.10
2022-11-23T14:28:05.080Z,9.10
2022-11-23T14:30:50.399Z,9.10
2022-11-23T14:33:34.914Z,9.08
2022-11-23T14:36:27.148Z,9.08
2022-11-23T14:40:04.807Z,9.02
2022-11-23T14:42:45.375Z,9.03
2022-11-23T14:45:18.241Z,9.00
2022-11-23T14:47:48.680Z,9.02
2022-11-23T14:50:27.388Z,9.02
2022-11-23T14:53:00.559Z,9.00
2022-11-23T14:55:32.860Z,8.97
2022-11-23T14:58:06.639Z,8.94
2022-11-23T15:00:42.329Z,8.92
2022-11-23T15:06:13.725Z,8.89
2022-11-23T15:08:51.319Z,8.89
2022-11-23T15:11:25.347Z,8.90
2022-11-23T15:14:02.231Z,8.90
2022-11-23T15:16:42.769Z,8.87
2022-11-23T15:19:29.284Z,8.89
2022-11-23T15:21:58.792Z,8.92
2022-11-23T15:24:29.740Z,8.89
2022-11-23T15:27:12.417Z,8.85
2022-11-23T15:29:54.175Z,8.85
2022-11-23T15:32:31.438Z,8.81
2022-11-23T15:35:06.937Z,8.74
2022-11-23T15:37:45.741Z,8.77
2022-11-23T15:40:20.083Z,8.74
2022-11-23T15:42:53.125Z,8.70
2022-11-23T15:46:03.318Z,8.67
2022-11-23T15:48:37.203Z,8.66
2022-11-23T15:51:09.732Z,8.63
2022-11-23T15:53:50.256Z,8.60
2022-11-23T15:56:27.209Z,8.57
2022-11-23T15:58:58.080Z,8.55
2022-11-23T16:01:28.041Z,8.55
2022-11-23T16:04:03.602Z,8.55
2022-11-23T16:06:41.861Z,8.53
2022-11-23T16:09:53.958Z,8.52
2022-11-23T16:12:30.062Z,8.50
2022-11-23T16:15:45.284Z,8.47
2022-11-23T16:18:25.136Z,8.46
2022-11-23T16:20:59.183Z,8.44
2022-11-23T16:23:43.226Z,8.42
2022-11-23T16:26:14.787Z,8.37
2022-11-23T16:28:55.004Z,8.35
2022-11-23T16:31:41.743Z,8.33
2022-11-23T16:34:16.973Z,8.34
2022-11-23T16:36:48.316Z,8.33
2022-11-23T16:39:17.406Z,8.29
2022-11-23T16:41:48.195Z,8.30
2022-11-23T16:44:19.413Z,8.27
2022-11-23T16:46:50.730Z,8.25
2022-11-23T16:49:23.706Z,8.24
2022-11-23T16:51:57.071Z,8.18
2022-11-23T16:54:27.047Z,8.15
2022-11-23T16:56:57.284Z,8.07
2022-11-23T16:59:27.476Z,8.01
2022-11-23T17:01:59.617Z,8.02
2022-11-23T17:04:29.151Z,7.99
2022-11-23T17:06:57.914Z,7.97
2022-11-23T17:09:27.394Z,7.96
2022-11-23T17:11:57.142Z,7.94
2022-11-23T17:14:30.019Z,7.92
2022-11-23T17:17:00.384Z,7.94
2022-11-23T17:19:31.589Z,7.95
2022-11-23T17:22:00.940Z,7.98
2022-11-23T17:24:31.375Z,8.00
2022-11-23T17:27:01.041Z,8.00
2022-11-23T17:29:32.371Z,7.99
2022-11-23T17:32:04.632Z,7.99
2022-11-23T17:34:34.437Z,8.01
2022-11-23T17:37:04.677Z,8.01
2022-11-23T17:39:35.136Z,8.01
2022-11-23T17:42:05.248Z,8.02
2022-11-23T17:44:33.807Z,8.00
2022-11-23T17:47:05.617Z,8.00
2022-11-23T17:49:35.063Z,7.99
2022-11-23T17:52:03.592Z,8.00
2022-11-23T17:54:33.196Z,8.00
2022-11-23T17:57:02.689Z,8.01
2022-11-23T17:59:31.458Z,7.99
2022-11-23T18:02:00.339Z,7.98
2022-11-23T18:04:32.020Z,8.01
2022-11-23T18:07:01.133Z,7.97
2022-11-23T18:09:30.548Z,7.98
2022-11-23T18:11:59.422Z,7.99
2022-11-23T18:14:29.218Z,7.99
2022-11-23T18:16:58.703Z,7.99
2022-11-23T18:19:27.285Z,8.01
2022-11-23T18:21:57.447Z,7.99
2022-11-23T18:24:26.025Z,8.00
2022-11-23T18:26:56.138Z,7.99
2022-11-23T18:29:26.607Z,8.00
2022-11-23T18:31:56.641Z,8.00
2022-11-23T18:34:25.843Z,8.00
2022-11-23T18:36:56.271Z,8.01
2022-11-23T18:39:25.428Z,8.00
2022-11-23T18:41:54.988Z,7.96
2022-11-23T18:44:24.688Z,7.99
2022-11-23T18:46:55.162Z,7.95
2022-11-23T18:49:25.650Z,7.93
2022-11-23T18:51:57.193Z,7.92
2022-11-23T18:54:26.213Z,7.95
2022-11-23T18:56:55.419Z,7.95
2022-11-23T19:02:13.211Z,7.96
2022-11-23T19:04:42.850Z,7.96
2022-11-23T19:07:13.755Z,7.95
2022-11-23T19:09:43.349Z,7.92
2022-11-23T19:12:12.751Z,7.87
2022-11-23T19:14:42.373Z,7.83
2022-11-23T19:17:10.873Z,7.85
2022-11-23T19:19:39.958Z,7.86
2022-11-23T19:22:09.138Z,7.87
2022-11-23T19:24:40.430Z,7.89
2022-11-23T19:27:10.321Z,7.89
2022-11-23T19:29:40.340Z,7.86
2022-11-23T19:32:09.630Z,7.86
2022-11-23T19:34:39.738Z,7.89
2022-11-23T19:37:09.570Z,7.91
2022-11-23T19:39:40.259Z,7.92
2022-11-23T19:42:10.274Z,7.96
2022-11-23T19:44:39.552Z,7.95
2022-11-23T19:47:15.334Z,7.98
2022-11-23T19:49:46.942Z,8.00
2022-11-23T19:52:15.932Z,8.02
2022-11-23T19:54:45.956Z,8.04
2022-11-23T19:57:15.059Z,8.06
2022-11-23T19:59:45.888Z,8.08
2022-11-23T20:02:26.185Z,8.11
2022-11-23T20:04:56.683Z,8.13
2022-11-23T20:07:28.288Z,8.15
2022-11-23T20:09:59.979Z,8.16
2022-11-23T20:12:29.662Z,8.18
2022-11-23T20:14:59.623Z,8.19
2022-11-23T20:17:28.129Z,8.20
2022-11-23T20:19:57.250Z,8.19
2022-11-23T20:22:30.942Z,8.20
2022-11-23T20:25:01.145Z,8.22
2022-11-23T20:27:30.029Z,8.22
2022-11-23T20:29:59.816Z,8.21
2022-11-23T20:32:28.728Z,8.25
2022-11-23T20:34:58.480Z,8.25
2022-11-23T20:37:28.413Z,8.25
2022-11-23T20:39:57.847Z,8.24
2022-11-23T20:42:30.494Z,8.19
2022-11-23T20:44:59.601Z,8.20
2022-11-23T20:47:29.292Z,8.20
2022-11-23T20:49:58.838Z,8.21
2022-11-23T20:52:28.391Z,8.22
2022-11-23T20:54:57.363Z,8.24
2022-11-23T20:57:29.110Z,8.22
2022-11-23T20:59:58.976Z,8.23
2022-11-23T21:02:28.824Z,8.25
2022-11-23T21:04:58.051Z,8.25
2022-11-23T21:07:28.100Z,8.26
2022-11-23T21:09:57.373Z,8.26
2022-11-23T21:12:50.378Z,8.25
2022-11-23T21:15:19.662Z,8.28
2022-11-23T21:17:48.136Z,8.26
2022-11-23T21:20:17.852Z,8.26
2022-11-23T21:22:47.524Z,8.27
2022-11-23T21:25:18.006Z,8.27
2022-11-23T21:27:49.214Z,8.26
2022-11-23T21:30:19.866Z,8.28
2022-11-23T21:32:51.392Z,8.28
2022-11-23T21:35:20.808Z,8.28
2022-11-23T21:37:50.190Z,8.29
2022-11-23T21:40:20.371Z,8.30
2022-11-23T21:42:53.599Z,8.33
2022-11-23T21:45:23.220Z,8.32
2022-11-23T21:47:52.966Z,8.32
2022-11-23T21:50:23.015Z,8.32
2022-11-23T21:52:52.558Z,8.34
2022-11-23T21:55:21.690Z,8.31
2022-11-23T21:57:52.579Z,8.29
2022-11-23T22:00:27.103Z,8.24
2022-11-23T22:03:01.069Z,8.24
2022-11-23T22:05:30.112Z,8.21
2022-11-23T22:08:29.858Z,8.20
2022-11-23T22:10:49.830Z,8.17
2022-11-23T22:13:21.660Z,8.17
2022-11-23T22:15:51.298Z,8.16
2022-11-23T22:18:21.528Z,8.17
2022-11-23T22:20:49.983Z,8.16
2022-11-23T22:23:19.679Z,8.14
2022-11-23T22:25:50.216Z,8.15
2022-11-23T22:28:21.581Z,8.16
2022-11-23T22:30:55.446Z,8.15
2022-11-23T22:33:24.625Z,8.09
2022-11-23T22:35:54.551Z,8.09
2022-11-23T22:38:24.382Z,8.11
2022-11-23T22:40:54.321Z,8.13
2022-11-23T22:43:25.042Z,8.13
2022-11-23T22:45:54.486Z,8.13
2022-11-23T22:48:25.190Z,8.13
2022-11-23T22:50:57.906Z,8.13
2022-11-23T22:53:28.302Z,8.13
2022-11-23T22:56:02.909Z,8.13
2022-11-23T22:58:33.838Z,8.11
2022-11-23T23:01:08.384Z,8.10
2022-11-23T23:03:39.089Z,8.08
2022-11-23T23:06:09.959Z,8.09
2022-11-23T23:08:39.015Z,8.08
2022-11-23T23:11:09.357Z,8.09
2022-11-23T23:13:41.543Z,8.11
2022-11-23T23:16:13.824Z,8.12
2022-11-23T23:18:44.214Z,8.15
2022-11-23T23:21:15.990Z,8.15
2022-11-23T23:23:48.090Z,8.16
2022-11-23T23:26:20.236Z,8.17
2022-11-23T23:28:50.842Z,8.17
2022-11-23T23:31:20.260Z,8.20
2022-11-23T23:33:49.070Z,8.19
2022-11-23T23:36:20.979Z,8.20
2022-11-23T23:38:49.751Z,8.19
2022-11-23T23:41:20.186Z,8.17
2022-11-23T23:43:51.083Z,8.17
2022-11-23T23:46:20.994Z,8.14
2022-11-23T23:48:50.382Z,8.12
2022-11-23T23:51:22.232Z,8.11
2022-11-23T23:53:52.194Z,8.11
2022-11-23T23:56:25.712Z,8.08
2022-11-23T23:58:58.179Z,8.05
